createdAt,value
2018-12-24T00:00:27.231Z,2.20
2018-12-24T00:01:04.842Z,2.20
2018-12-24T00:01:42.460Z,2.20
2018-12-24T00:02:20.299Z,2.20
2018-12-24T00:02:57.919Z,2.20
2018-12-24T00:03:35.906Z,2.20
2018-12-24T00:04:13.431Z,2.20
2018-12-24T00:04:50.970Z,2.20
2018-12-24T00:05:28.558Z,2.20
2018-12-24T00:06:06.369Z,2.20
2018-12-24T00:06:44.166Z,2.20
2018-12-24T00:07:21.403Z,2.20
2018-12-24T00:07:58.971Z,2.20
2018-12-24T00:08:36.827Z,2.20
2018-12-24T00:09:14.516Z,2.20
2018-12-24T00:09:51.810Z,2.20
2018-12-24T00:10:30.231Z,2.30
2018-12-24T00:11:07.704Z,2.20
2018-12-24T00:11:45.029Z,2.30
2018-12-24T00:12:22.826Z,2.30
2018-12-24T00:13:00.245Z,2.30
2018-12-24T00:13:37.777Z,2.30
2018-12-24T00:14:15.136Z,2.30
2018-12-24T00:14:52.679Z,2.30
2018-12-24T00:15:30.143Z,2.30
2018-12-24T00:16:07.699Z,2.30
2018-12-24T00:16:44.930Z,2.30
2018-12-24T00:17:22.272Z,2.30
2018-12-24T00:18:00.127Z,2.30
2018-12-24T00:18:37.922Z,2.30
2018-12-24T00:19:15.671Z,2.30
2018-12-24T00:19:53.178Z,2.30
2018-12-24T00:20:30.921Z,2.30
2018-12-24T00:21:08.524Z,2.30
2018-12-24T00:21:45.507Z,2.30
2018-12-24T00:22:22.761Z,2.30
2018-12-24T00:23:00.063Z,2.30
2018-12-24T00:23:37.577Z,2.30
2018-12-24T00:24:15.031Z,2.40
2018-12-24T00:24:52.231Z,2.40
2018-12-24T00:25:29.784Z,2.40
2018-12-24T00:26:07.233Z,2.40
2018-12-24T00:26:45.206Z,2.40
2018-12-24T00:27:22.849Z,2.40
2018-12-24T00:28:00.432Z,2.40
2018-12-24T00:28:37.859Z,2.40
2018-12-24T00:29:15.674Z,2.30
2018-12-24T00:29:53.288Z,2.30
2018-12-24T00:30:30.587Z,2.30
2018-12-24T00:31:08.182Z,2.30
2018-12-24T00:31:44.918Z,2.30
2018-12-24T00:32:22.275Z,2.30
2018-12-24T00:32:59.533Z,2.40
2018-12-24T00:33:37.099Z,2.40
2018-12-24T00:34:14.958Z,2.30
2018-12-24T00:34:52.492Z,2.40
2018-12-24T00:35:30.123Z,2.40
2018-12-24T00:36:06.851Z,2.30
2018-12-24T00:36:44.133Z,2.30
2018-12-24T00:37:21.942Z,2.30
2018-12-24T00:37:59.219Z,2.30
2018-12-24T00:38:37.101Z,2.30
2018-12-24T00:39:14.375Z,2.30
2018-12-24T00:39:51.660Z,2.30
2018-12-24T00:40:28.928Z,2.30
2018-12-24T00:41:06.382Z,2.30
2018-12-24T00:41:43.394Z,2.30
2018-12-24T00:42:21.051Z,2.30
2018-12-24T00:42:58.690Z,2.40
2018-12-24T00:43:36.564Z,2.40
2018-12-24T00:44:13.492Z,2.30
2018-12-24T00:44:51.308Z,2.30
2018-12-24T00:45:28.546Z,2.30
2018-12-24T00:46:06.108Z,2.30
2018-12-24T00:46:43.638Z,2.30
2018-12-24T00:47:21.450Z,2.30
2018-12-24T00:47:58.999Z,2.20
2018-12-24T00:48:36.249Z,2.20
2018-12-24T00:49:13.682Z,2.20
2018-12-24T00:49:51.272Z,2.20
2018-12-24T00:50:28.816Z,2.20
2018-12-24T00:51:06.512Z,2.20
2018-12-24T00:51:43.780Z,2.20
2018-12-24T00:52:21.050Z,2.20
2018-12-24T00:52:58.620Z,2.20
2018-12-24T00:53:35.604Z,2.20
2018-12-24T00:54:13.383Z,2.20
2018-12-24T00:54:50.628Z,2.20
2018-12-24T00:55:27.818Z,2.10
2018-12-24T00:56:04.838Z,2.10
2018-12-24T00:56:41.874Z,2.10
2018-12-24T00:57:19.381Z,2.10
2018-12-24T00:57:56.718Z,2.00
2018-12-24T00:58:34.421Z,2.00
2018-12-24T00:59:11.977Z,2.00
2018-12-24T00:59:49.506Z,2.00
2018-12-24T01:00:27.344Z,2.00
2018-12-24T01:01:04.923Z,2.00
2018-12-24T01:01:42.622Z,2.00
2018-12-24T01:02:20.408Z,2.00
2018-12-24T01:02:57.750Z,2.00
2018-12-24T01:03:35.947Z,2.00
2018-12-24T01:04:13.757Z,2.00
2018-12-24T01:04:51.572Z,2.00
2018-12-24T01:05:29.170Z,2.00
2018-12-24T01:06:06.571Z,2.00
2018-12-24T01:06:43.612Z,1.90
2018-12-24T01:07:20.836Z,2.00
2018-12-24T01:07:57.992Z,2.00
2018-12-24T01:08:35.806Z,2.00
2018-12-24T01:09:13.350Z,2.00
2018-12-24T01:09:51.297Z,2.00
2018-12-24T01:10:29.120Z,2.00
2018-12-24T01:11:06.883Z,2.00
2018-12-24T01:11:44.708Z,2.00
2018-12-24T01:12:24.714Z,2.10
2018-12-24T01:13:01.600Z,2.10
2018-12-24T01:13:39.200Z,2.00
2018-12-24T01:14:16.792Z,2.00
2018-12-24T01:14:54.660Z,2.00
2018-12-24T01:15:32.540Z,2.00
2018-12-24T01:16:10.359Z,2.00
2018-12-24T01:16:48.230Z,2.00
2018-12-24T01:17:25.672Z,2.00
2018-12-24T01:18:03.535Z,2.00
2018-12-24T01:18:41.034Z,1.90
2018-12-24T01:19:18.499Z,1.90
2018-12-24T01:19:56.048Z,1.90
2018-12-24T01:20:33.951Z,1.90
2018-12-24T01:21:11.308Z,1.90
2018-12-24T01:21:48.351Z,1.90
2018-12-24T01:22:25.894Z,1.90
2018-12-24T01:23:03.510Z,1.90
2018-12-24T01:23:41.060Z,1.90
2018-12-24T01:24:18.352Z,1.90
2018-12-24T01:24:56.181Z,1.90
2018-12-24T01:25:33.756Z,1.90
2018-12-24T01:26:11.488Z,1.90
2018-12-24T01:26:48.420Z,1.90
2018-12-24T01:27:25.372Z,1.90
2018-12-24T01:28:02.657Z,1.90
2018-12-24T01:28:40.430Z,1.90
2018-12-24T01:29:17.968Z,1.90
2018-12-24T01:29:55.675Z,1.90
2018-12-24T01:30:33.245Z,1.90
2018-12-24T01:31:10.588Z,1.90
2018-12-24T01:31:48.216Z,1.90
2018-12-24T01:32:25.764Z,1.90
2018-12-24T01:33:03.250Z,1.90
2018-12-24T01:33:40.239Z,1.90
2018-12-24T01:34:17.536Z,1.90
2018-12-24T01:34:55.099Z,1.80
2018-12-24T01:35:32.656Z,1.80
2018-12-24T01:36:10.262Z,1.80
2018-12-24T01:36:47.892Z,1.80
2018-12-24T01:37:25.172Z,1.80
2018-12-24T01:38:02.674Z,1.80
2018-12-24T01:38:39.988Z,1.80
2018-12-24T01:39:17.936Z,1.80
2018-12-24T01:39:55.106Z,1.80
2018-12-24T01:40:32.741Z,1.80
2018-12-24T01:41:10.303Z,1.80
2018-12-24T01:41:48.072Z,1.80
2018-12-24T01:42:33.315Z,1.80
2018-12-24T01:43:04.876Z,1.80
2018-12-24T01:43:41.832Z,1.80
2018-12-24T01:44:19.190Z,1.80
2018-12-24T01:44:56.460Z,1.80
2018-12-24T01:45:34.026Z,1.80
2018-12-24T01:46:11.902Z,1.80
2018-12-24T01:46:49.262Z,1.80
2018-12-24T01:47:26.271Z,1.80
2018-12-24T01:48:03.755Z,1.80
2018-12-24T01:48:41.236Z,1.80
2018-12-24T01:49:18.663Z,1.80
2018-12-24T01:49:56.189Z,1.80
2018-12-24T01:50:34.058Z,1.80
2018-12-24T01:51:11.413Z,1.80
2018-12-24T01:51:49.510Z,1.80
2018-12-24T01:52:27.040Z,1.80
2018-12-24T01:53:04.862Z,1.80
2018-12-24T01:53:42.439Z,1.80
2018-12-24T01:54:19.900Z,1.80
2018-12-24T01:54:57.330Z,1.80
2018-12-24T01:55:34.996Z,1.80
2018-12-24T01:56:12.444Z,1.70
2018-12-24T01:56:50.308Z,1.70
2018-12-24T01:57:28.190Z,1.70
2018-12-24T01:58:05.680Z,1.70
2018-12-24T01:58:42.989Z,1.70
2018-12-24T01:59:20.608Z,1.70
2018-12-24T01:59:58.387Z,1.70
2018-12-24T02:00:35.969Z,1.70
2018-12-24T02:01:13.261Z,1.70
2018-12-24T02:01:50.516Z,1.70
2018-12-24T02:02:28.062Z,1.70
2018-12-24T02:03:05.652Z,1.60
2018-12-24T02:03:43.548Z,1.60
2018-12-24T02:04:20.746Z,1.60
2018-12-24T02:04:57.976Z,1.60
2018-12-24T02:05:35.574Z,1.60
2018-12-24T02:06:12.868Z,1.50
2018-12-24T02:06:50.700Z,1.50
2018-12-24T02:07:28.413Z,1.50
2018-12-24T02:08:05.779Z,1.50
2018-12-24T02:08:43.344Z,1.50
2018-12-24T02:09:21.134Z,1.50
2018-12-24T02:09:58.707Z,1.50
2018-12-24T02:10:36.265Z,1.40
2018-12-24T02:11:14.144Z,1.50
2018-12-24T02:11:51.894Z,1.40
2018-12-24T02:12:29.858Z,1.40
2018-12-24T02:13:07.261Z,1.40
2018-12-24T02:13:44.838Z,1.40
2018-12-24T02:14:22.317Z,1.40
2018-12-24T02:14:59.822Z,1.50
2018-12-24T02:15:37.122Z,1.50
2018-12-24T02:16:14.580Z,1.50
2018-12-24T02:16:52.068Z,1.50
2018-12-24T02:17:29.276Z,1.50
2018-12-24T02:18:06.699Z,1.40
2018-12-24T02:18:44.184Z,1.50
2018-12-24T02:19:21.710Z,1.40
2018-12-24T02:19:59.090Z,1.50
2018-12-24T02:20:36.723Z,1.40
2018-12-24T02:21:14.277Z,1.40
2018-12-24T02:21:51.592Z,1.40
2018-12-24T02:22:28.420Z,1.40
2018-12-24T02:23:05.591Z,1.40
2018-12-24T02:23:42.712Z,1.40
2018-12-24T02:24:20.328Z,1.40
2018-12-24T02:24:57.654Z,1.40
2018-12-24T02:25:34.838Z,1.40
2018-12-24T02:26:12.404Z,1.40
2018-12-24T02:26:49.784Z,1.40
2018-12-24T02:27:27.394Z,1.40
2018-12-24T02:28:04.996Z,1.40
2018-12-24T02:28:42.560Z,1.40
2018-12-24T02:29:20.098Z,1.40
2018-12-24T02:29:57.688Z,1.40
2018-12-24T02:30:35.193Z,1.40
2018-12-24T02:31:12.027Z,1.30
2018-12-24T02:31:49.676Z,1.30
2018-12-24T02:32:27.331Z,1.30
2018-12-24T02:33:04.946Z,1.30
2018-12-24T02:33:42.283Z,1.30
2018-12-24T02:34:19.593Z,1.30
2018-12-24T02:34:56.960Z,1.20
2018-12-24T02:35:34.285Z,1.20
2018-12-24T02:36:11.809Z,1.20
2018-12-24T02:36:49.188Z,1.20
2018-12-24T02:37:26.471Z,1.20
2018-12-24T02:38:04.450Z,1.20
2018-12-24T02:38:41.983Z,1.20
2018-12-24T02:39:19.271Z,1.20
2018-12-24T02:39:56.293Z,1.20
2018-12-24T02:40:34.112Z,1.30
2018-12-24T02:41:11.797Z,1.30
2018-12-24T02:41:48.866Z,1.30
2018-12-24T02:42:26.733Z,1.30
2018-12-24T02:43:04.388Z,1.30
2018-12-24T02:43:41.963Z,1.30
2018-12-24T02:44:19.419Z,1.30
2018-12-24T02:44:56.981Z,1.30
2018-12-24T02:45:34.548Z,1.30
2018-12-24T02:46:11.772Z,1.30
2018-12-24T02:46:49.370Z,1.30
2018-12-24T02:47:26.961Z,1.30
2018-12-24T02:48:04.586Z,1.30
2018-12-24T02:48:42.122Z,1.30
2018-12-24T02:49:19.654Z,1.30
2018-12-24T02:49:57.266Z,1.30
2018-12-24T02:50:35.052Z,1.20
2018-12-24T02:51:12.650Z,1.20
2018-12-24T02:51:50.332Z,1.20
2018-12-24T02:52:27.848Z,1.20
2018-12-24T02:53:04.860Z,1.20
2018-12-24T02:53:42.305Z,1.10
2018-12-24T02:54:19.870Z,1.20
2018-12-24T02:54:57.466Z,1.20
2018-12-24T02:55:34.503Z,1.20
2018-12-24T02:56:12.105Z,1.20
2018-12-24T02:56:49.600Z,1.10
2018-12-24T02:57:27.193Z,1.10
2018-12-24T02:58:04.717Z,1.10
2018-12-24T02:58:42.305Z,1.10
2018-12-24T02:59:19.244Z,1.10
2018-12-24T02:59:57.081Z,1.10
2018-12-24T03:00:34.066Z,1.10
2018-12-24T03:01:11.540Z,1.20
2018-12-24T03:01:49.438Z,1.20
2018-12-24T03:02:26.964Z,1.20
2018-12-24T03:03:04.588Z,1.20
2018-12-24T03:03:42.072Z,1.20
2018-12-24T03:04:19.812Z,1.20
2018-12-24T03:04:57.114Z,1.20
2018-12-24T03:05:34.974Z,1.20
2018-12-24T03:06:12.220Z,1.20
2018-12-24T03:06:49.214Z,1.20
2018-12-24T03:07:27.026Z,1.20
2018-12-24T03:08:04.940Z,1.10
2018-12-24T03:08:42.740Z,1.10
2018-12-24T03:09:20.256Z,1.10
2018-12-24T03:09:57.267Z,1.10
2018-12-24T03:10:34.803Z,1.10
2018-12-24T03:11:12.584Z,1.10
2018-12-24T03:11:49.929Z,1.10
2018-12-24T03:12:27.120Z,1.20
2018-12-24T03:13:04.317Z,1.20
2018-12-24T03:13:41.627Z,1.20
2018-12-24T03:14:19.265Z,1.10
2018-12-24T03:14:56.621Z,1.20
2018-12-24T03:15:33.866Z,1.20
2018-12-24T03:16:11.298Z,1.10
2018-12-24T03:16:48.772Z,1.10
2018-12-24T03:17:25.780Z,1.10
2018-12-24T03:18:03.242Z,1.10
2018-12-24T03:18:40.713Z,1.10
2018-12-24T03:19:18.238Z,1.10
2018-12-24T03:19:56.022Z,1.10
2018-12-24T03:20:33.301Z,1.10
2018-12-24T03:21:10.834Z,1.10
2018-12-24T03:21:47.828Z,1.10
2018-12-24T03:22:25.031Z,1.10
2018-12-24T03:23:02.866Z,1.10
2018-12-24T03:23:40.140Z,1.10
2018-12-24T03:24:17.328Z,1.10
2018-12-24T03:24:54.592Z,1.10
2018-12-24T03:25:32.100Z,1.10
2018-12-24T03:26:09.867Z,1.10
2018-12-24T03:26:47.392Z,1.10
2018-12-24T03:27:24.857Z,1.10
2018-12-24T03:28:02.379Z,1.10
2018-12-24T03:28:39.572Z,1.10
2018-12-24T03:29:17.439Z,1.10
2018-12-24T03:29:55.004Z,1.10
2018-12-24T03:30:32.507Z,1.10
2018-12-24T03:31:10.313Z,1.10
2018-12-24T03:31:47.566Z,1.10
2018-12-24T03:32:25.064Z,1.10
2018-12-24T03:33:02.882Z,1.10
2018-12-24T03:33:39.913Z,1.10
2018-12-24T03:34:17.114Z,1.10
2018-12-24T03:34:54.801Z,1.10
2018-12-24T03:35:32.253Z,1.10
2018-12-24T03:36:09.984Z,1.10
2018-12-24T03:36:47.031Z,1.10
2018-12-24T03:37:24.299Z,1.10
2018-12-24T03:38:02.027Z,1.10
2018-12-24T03:38:39.906Z,1.10
2018-12-24T03:39:17.720Z,1.10
2018-12-24T03:39:55.329Z,1.10
2018-12-24T03:40:33.062Z,1.10
2018-12-24T03:41:10.129Z,1.10
2018-12-24T03:41:47.710Z,1.10
2018-12-24T03:42:24.971Z,1.10
2018-12-24T03:43:12.094Z,1.10
2018-12-24T03:43:41.743Z,1.10
2018-12-24T03:44:19.333Z,1.10
2018-12-24T03:44:56.662Z,1.10
2018-12-24T03:45:34.190Z,1.10
2018-12-24T03:46:11.441Z,1.10
2018-12-24T03:46:48.985Z,1.10
2018-12-24T03:47:25.957Z,1.00
2018-12-24T03:48:03.777Z,1.00
2018-12-24T03:48:41.661Z,1.00
2018-12-24T03:49:18.688Z,1.00
2018-12-24T03:49:55.798Z,1.00
2018-12-24T03:50:32.943Z,1.00
2018-12-24T03:51:10.711Z,1.00
2018-12-24T03:51:48.314Z,1.00
2018-12-24T03:52:26.221Z,1.00
2018-12-24T03:53:03.997Z,1.00
2018-12-24T03:53:41.354Z,0.90
2018-12-24T03:54:18.690Z,1.00
2018-12-24T03:54:56.012Z,0.90
2018-12-24T03:55:33.300Z,0.90
2018-12-24T03:56:10.592Z,0.90
2018-12-24T03:56:48.161Z,0.90
2018-12-24T03:57:25.374Z,0.90
2018-12-24T03:58:02.446Z,0.90
2018-12-24T03:58:39.527Z,0.90
2018-12-24T03:59:16.514Z,0.90
2018-12-24T03:59:53.770Z,0.90
2018-12-24T04:00:30.960Z,0.90
2018-12-24T04:01:08.032Z,0.90
2018-12-24T04:01:45.082Z,0.90
2018-12-24T04:02:22.367Z,0.90
2018-12-24T04:02:59.730Z,0.90
2018-12-24T04:03:37.900Z,0.90
2018-12-24T04:04:15.794Z,0.90
2018-12-24T04:04:53.347Z,0.90
2018-12-24T04:05:30.390Z,0.90
2018-12-24T04:06:07.585Z,0.90
2018-12-24T04:06:45.194Z,0.90
2018-12-24T04:07:22.195Z,0.90
2018-12-24T04:08:00.015Z,0.90
2018-12-24T04:08:37.301Z,0.90
2018-12-24T04:09:14.865Z,0.90
2018-12-24T04:09:52.737Z,0.90
2018-12-24T04:10:30.290Z,0.90
2018-12-24T04:11:07.366Z,0.90
2018-12-24T04:11:44.654Z,0.90
2018-12-24T04:12:22.195Z,0.90
2018-12-24T04:12:59.780Z,0.90
2018-12-24T04:13:37.417Z,0.90
2018-12-24T04:14:15.345Z,0.90
2018-12-24T04:14:52.903Z,0.90
2018-12-24T04:15:30.165Z,0.80
2018-12-24T04:16:07.702Z,0.80
2018-12-24T04:16:45.591Z,0.80
2018-12-24T04:17:23.441Z,0.80
2018-12-24T04:18:00.778Z,0.80
2018-12-24T04:18:38.713Z,0.80
2018-12-24T04:19:16.007Z,0.80
2018-12-24T04:19:53.843Z,0.80
2018-12-24T04:20:31.898Z,0.80
2018-12-24T04:21:09.410Z,0.80
2018-12-24T04:21:47.153Z,0.80
2018-12-24T04:22:24.150Z,0.80
2018-12-24T04:23:01.763Z,0.80
2018-12-24T04:23:39.617Z,0.80
2018-12-24T04:24:17.201Z,0.80
2018-12-24T04:24:54.226Z,0.80
2018-12-24T04:25:31.593Z,0.80
2018-12-24T04:26:09.435Z,0.80
2018-12-24T04:26:46.653Z,0.80
2018-12-24T04:27:23.917Z,0.80
2018-12-24T04:28:01.762Z,0.80
2018-12-24T04:28:38.720Z,0.80
2018-12-24T04:29:16.532Z,0.80
2018-12-24T04:29:54.013Z,0.80
2018-12-24T04:30:31.508Z,0.80
2018-12-24T04:31:09.075Z,0.80
2018-12-24T04:31:46.331Z,0.80
2018-12-24T04:32:24.089Z,0.80
2018-12-24T04:33:01.312Z,0.80
2018-12-24T04:33:38.517Z,0.70
2018-12-24T04:34:16.197Z,0.70
2018-12-24T04:34:53.727Z,0.70
2018-12-24T04:35:31.081Z,0.80
2018-12-24T04:36:08.389Z,0.80
2018-12-24T04:36:45.901Z,0.80
2018-12-24T04:37:23.455Z,0.80
2018-12-24T04:38:00.974Z,0.80
2018-12-24T04:38:37.757Z,0.80
2018-12-24T04:39:15.386Z,0.70
2018-12-24T04:39:52.908Z,0.70
2018-12-24T04:40:30.469Z,0.70
2018-12-24T04:41:08.023Z,0.70
2018-12-24T04:41:45.557Z,0.70
2018-12-24T04:42:22.561Z,0.70
2018-12-24T04:42:59.733Z,0.70
2018-12-24T04:43:37.517Z,0.70
2018-12-24T04:44:15.010Z,0.70
2018-12-24T04:44:51.697Z,0.70
2018-12-24T04:45:29.213Z,0.70
2018-12-24T04:46:06.754Z,0.70
2018-12-24T04:46:44.305Z,0.70
2018-12-24T04:47:21.627Z,0.70
2018-12-24T04:47:59.158Z,0.70
2018-12-24T04:48:36.062Z,0.70
2018-12-24T04:49:13.367Z,0.70
2018-12-24T04:49:50.992Z,0.70
2018-12-24T04:50:28.935Z,0.70
2018-12-24T04:51:06.177Z,0.70
2018-12-24T04:51:43.223Z,0.70
2018-12-24T04:52:21.034Z,0.70
2018-12-24T04:52:58.557Z,0.70
2018-12-24T04:53:36.097Z,0.70
2018-12-24T04:54:13.099Z,0.70
2018-12-24T04:54:50.659Z,0.70
2018-12-24T04:55:28.209Z,0.70
2018-12-24T04:56:05.667Z,0.70
2018-12-24T04:56:43.521Z,0.70
2018-12-24T04:57:20.627Z,0.70
2018-12-24T04:57:57.873Z,0.70
2018-12-24T04:58:34.899Z,0.70
2018-12-24T04:59:12.189Z,0.70
2018-12-24T04:59:49.805Z,0.70
2018-12-24T05:00:27.395Z,0.70
2018-12-24T05:01:05.228Z,0.70
2018-12-24T05:01:43.078Z,0.70
2018-12-24T05:02:20.742Z,0.80
2018-12-24T05:02:58.297Z,0.80
2018-12-24T05:03:35.563Z,0.80
2018-12-24T05:04:12.843Z,0.80
2018-12-24T05:04:50.163Z,0.80
2018-12-24T05:05:28.073Z,0.80
2018-12-24T05:06:05.677Z,0.80
2018-12-24T05:06:43.027Z,0.80
2018-12-24T05:07:20.571Z,0.80
2018-12-24T05:07:57.593Z,0.80
2018-12-24T05:08:35.481Z,0.80
2018-12-24T05:09:13.097Z,0.80
2018-12-24T05:09:50.641Z,0.80
2018-12-24T05:10:28.216Z,0.80
2018-12-24T05:11:05.715Z,0.80
2018-12-24T05:11:43.631Z,0.80
2018-12-24T05:12:21.433Z,0.80
2018-12-24T05:12:59.155Z,0.80
2018-12-24T05:13:40.893Z,0.80
2018-12-24T05:14:16.083Z,0.80
2018-12-24T05:14:53.337Z,0.80
2018-12-24T05:15:30.905Z,0.80
2018-12-24T05:16:08.463Z,0.80
2018-12-24T05:16:45.745Z,0.80
2018-12-24T05:17:23.561Z,0.80
2018-12-24T05:18:01.393Z,0.90
2018-12-24T05:18:39.289Z,0.90
2018-12-24T05:19:17.061Z,0.90
2018-12-24T05:19:54.889Z,0.80
2018-12-24T05:20:32.377Z,0.90
2018-12-24T05:21:09.573Z,0.90
2018-12-24T05:21:47.130Z,0.80
2018-12-24T05:22:24.350Z,0.80
2018-12-24T05:23:01.889Z,0.80
2018-12-24T05:23:39.465Z,0.80
2018-12-24T05:24:17.288Z,0.90
2018-12-24T05:24:54.317Z,0.90
2018-12-24T05:25:31.397Z,0.90
2018-12-24T05:26:09.157Z,0.80
2018-12-24T05:26:46.183Z,0.80
2018-12-24T05:27:23.767Z,0.80
2018-12-24T05:28:01.649Z,0.80
2018-12-24T05:28:38.855Z,0.80
2018-12-24T05:29:16.405Z,0.80
2018-12-24T05:29:53.703Z,0.80
2018-12-24T05:30:30.693Z,0.80
2018-12-24T05:31:08.079Z,0.80
2018-12-24T05:31:45.375Z,0.80
2018-12-24T05:32:22.649Z,0.80
2018-12-24T05:32:59.847Z,0.80
2018-12-24T05:33:37.381Z,0.80
2018-12-24T05:34:14.747Z,0.80
2018-12-24T05:34:52.054Z,0.80
2018-12-24T05:35:29.247Z,0.90
2018-12-24T05:36:06.704Z,0.90
2018-12-24T05:36:43.655Z,0.90
2018-12-24T05:37:20.883Z,0.80
2018-12-24T05:37:58.643Z,0.80
2018-12-24T05:38:35.958Z,0.90
2018-12-24T05:39:13.599Z,0.90
2018-12-24T05:39:51.419Z,0.90
2018-12-24T05:40:28.899Z,0.80
2018-12-24T05:41:05.983Z,0.80
2018-12-24T05:41:43.871Z,0.80
2018-12-24T05:42:21.028Z,0.80
2018-12-24T05:42:58.464Z,0.80
2018-12-24T05:43:36.015Z,0.80
2018-12-24T05:44:13.761Z,0.80
2018-12-24T05:44:50.910Z,0.80
2018-12-24T05:45:28.448Z,0.80
2018-12-24T05:46:05.694Z,0.80
2018-12-24T05:46:43.468Z,0.80
2018-12-24T05:47:21.038Z,0.80
2018-12-24T05:47:58.885Z,0.80
2018-12-24T05:48:36.348Z,0.80
2018-12-24T05:49:14.145Z,0.80
2018-12-24T05:49:51.362Z,0.70
2018-12-24T05:50:28.779Z,0.70
2018-12-24T05:51:06.563Z,0.70
2018-12-24T05:51:44.483Z,0.70
2018-12-24T05:52:21.740Z,0.70
2018-12-24T05:52:59.611Z,0.70
2018-12-24T05:53:37.139Z,0.70
2018-12-24T05:54:14.857Z,0.70
2018-12-24T05:54:52.136Z,0.70
2018-12-24T05:55:29.586Z,0.60
2018-12-24T05:56:06.944Z,0.60
2018-12-24T05:56:44.383Z,0.60
2018-12-24T05:57:22.088Z,0.60
2018-12-24T05:57:59.288Z,0.60
2018-12-24T05:58:37.038Z,0.60
2018-12-24T05:59:14.300Z,0.60
2018-12-24T05:59:52.118Z,0.60
2018-12-24T06:00:29.461Z,0.60
2018-12-24T06:01:06.822Z,0.60
2018-12-24T06:01:44.554Z,0.60
2018-12-24T06:02:21.972Z,0.50
2018-12-24T06:02:59.683Z,0.50
2018-12-24T06:03:37.041Z,0.50
2018-12-24T06:04:14.948Z,0.50
2018-12-24T06:04:52.300Z,0.50
2018-12-24T06:05:29.129Z,0.50
2018-12-24T06:06:06.637Z,0.50
2018-12-24T06:06:44.629Z,0.50
2018-12-24T06:07:22.189Z,0.60
2018-12-24T06:07:59.680Z,0.50
2018-12-24T06:08:37.042Z,0.50
2018-12-24T06:09:14.778Z,0.50
2018-12-24T06:09:52.064Z,0.50
2018-12-24T06:10:29.562Z,0.50
2018-12-24T06:11:06.846Z,0.50
2018-12-24T06:11:44.107Z,0.50
2018-12-24T06:12:21.386Z,0.50
2018-12-24T06:12:58.943Z,0.40
2018-12-24T06:13:36.261Z,0.40
2018-12-24T06:14:13.531Z,0.40
2018-12-24T06:14:51.067Z,0.40
2018-12-24T06:15:28.616Z,0.40
2018-12-24T06:16:06.326Z,0.40
2018-12-24T06:16:44.212Z,0.40
2018-12-24T06:17:21.518Z,0.40
2018-12-24T06:17:58.796Z,0.40
2018-12-24T06:18:36.782Z,0.50
2018-12-24T06:19:14.366Z,0.50
2018-12-24T06:19:51.924Z,0.50
2018-12-24T06:20:37.477Z,0.50
2018-12-24T06:21:08.688Z,0.50
2018-12-24T06:21:46.740Z,0.50
2018-12-24T06:22:24.008Z,0.50
2018-12-24T06:23:01.284Z,0.50
2018-12-24T06:23:39.112Z,0.50
2018-12-24T06:24:17.116Z,0.50
2018-12-24T06:24:54.704Z,0.50
2018-12-24T06:25:32.192Z,0.50
2018-12-24T06:26:09.784Z,0.40
2018-12-24T06:26:47.049Z,0.40
2018-12-24T06:27:24.863Z,0.40
2018-12-24T06:28:02.391Z,0.40
2018-12-24T06:28:40.267Z,0.40
2018-12-24T06:29:18.084Z,0.40
2018-12-24T06:29:55.866Z,0.40
2018-12-24T06:30:33.424Z,0.30
2018-12-24T06:31:11.190Z,0.30
2018-12-24T06:31:48.960Z,0.30
2018-12-24T06:32:26.704Z,0.30
2018-12-24T06:33:04.045Z,0.30
2018-12-24T06:33:41.555Z,0.30
2018-12-24T06:34:19.605Z,0.30
2018-12-24T06:34:57.520Z,0.30
2018-12-24T06:35:35.393Z,0.30
2018-12-24T06:36:12.884Z,0.30
2018-12-24T06:36:50.614Z,0.30
2018-12-24T06:37:28.428Z,0.30
2018-12-24T06:38:05.891Z,0.30
2018-12-24T06:38:43.733Z,0.30
2018-12-24T06:39:21.201Z,0.30
2018-12-24T06:39:59.051Z,0.30
2018-12-24T06:40:37.136Z,0.30
2018-12-24T06:41:14.716Z,0.30
2018-12-24T06:41:52.404Z,0.30
2018-12-24T06:42:29.982Z,0.30
2018-12-24T06:43:07.788Z,0.30
2018-12-24T06:43:45.061Z,0.30
2018-12-24T06:44:22.624Z,0.30
2018-12-24T06:44:59.659Z,0.30
2018-12-24T06:45:36.664Z,0.30
2018-12-24T06:46:14.135Z,0.30
2018-12-24T06:46:51.953Z,0.30
2018-12-24T06:47:29.677Z,0.30
2018-12-24T06:48:07.189Z,0.30
2018-12-24T06:48:44.757Z,0.30
2018-12-24T06:49:22.711Z,0.20
2018-12-24T06:50:00.419Z,0.30
2018-12-24T06:50:37.703Z,0.30
2018-12-24T06:51:14.993Z,0.30
2018-12-24T06:51:52.233Z,0.30
2018-12-24T06:52:29.573Z,0.30
2018-12-24T06:53:07.164Z,0.30
2018-12-24T06:53:44.479Z,0.30
2018-12-24T06:54:21.841Z,0.30
2018-12-24T06:54:59.091Z,0.30
2018-12-24T06:55:36.425Z,0.30
2018-12-24T06:56:13.349Z,0.30
2018-12-24T06:56:50.335Z,0.30
2018-12-24T06:57:27.642Z,0.30
2018-12-24T06:58:05.248Z,0.30
2018-12-24T06:58:42.731Z,0.30
2018-12-24T06:59:19.797Z,0.30
2018-12-24T06:59:57.320Z,0.30
2018-12-24T07:00:34.340Z,0.30
2018-12-24T07:01:11.301Z,0.30
2018-12-24T07:01:48.684Z,0.30
2018-12-24T07:02:26.497Z,0.30
2018-12-24T07:03:03.845Z,0.30
2018-12-24T07:03:41.697Z,0.30
2018-12-24T07:04:19.144Z,0.30
2018-12-24T07:04:56.158Z,0.30
2018-12-24T07:05:33.648Z,0.30
2018-12-24T07:06:11.501Z,0.30
2018-12-24T07:06:49.130Z,0.30
2018-12-24T07:07:26.907Z,0.30
2018-12-24T07:08:04.570Z,0.30
2018-12-24T07:08:42.101Z,0.30
2018-12-24T07:09:19.656Z,0.30
2018-12-24T07:09:57.011Z,0.30
2018-12-24T07:10:34.574Z,0.30
2018-12-24T07:11:12.070Z,0.30
2018-12-24T07:11:49.119Z,0.30
2018-12-24T07:12:27.052Z,0.30
2018-12-24T07:13:03.708Z,0.40
2018-12-24T07:13:41.581Z,0.30
2018-12-24T07:14:18.901Z,0.30
2018-12-24T07:14:56.489Z,0.30
2018-12-24T07:15:34.075Z,0.30
2018-12-24T07:16:11.745Z,0.30
2018-12-24T07:16:48.983Z,0.30
2018-12-24T07:17:26.163Z,0.30
2018-12-24T07:18:04.080Z,0.30
2018-12-24T07:18:41.997Z,0.30
2018-12-24T07:19:19.861Z,0.30
2018-12-24T07:19:57.536Z,0.30
2018-12-24T07:20:35.251Z,0.30
2018-12-24T07:21:12.937Z,0.30
2018-12-24T07:21:50.585Z,0.40
2018-12-24T07:22:28.465Z,0.30
2018-12-24T07:23:06.035Z,0.30
2018-12-24T07:23:43.881Z,0.40
2018-12-24T07:24:21.865Z,0.40
2018-12-24T07:24:59.797Z,0.40
2018-12-24T07:25:37.404Z,0.40
2018-12-24T07:26:14.781Z,0.40
2018-12-24T07:26:52.523Z,0.40
2018-12-24T07:27:30.332Z,0.40
2018-12-24T07:28:07.373Z,0.40
2018-12-24T07:28:44.881Z,0.40
2018-12-24T07:29:22.491Z,0.40
2018-12-24T07:29:59.746Z,0.40
2018-12-24T07:30:37.309Z,0.40
2018-12-24T07:31:14.541Z,0.40
2018-12-24T07:31:52.204Z,0.40
2018-12-24T07:32:30.057Z,0.40
2018-12-24T07:33:07.555Z,0.40
2018-12-24T07:33:45.837Z,0.40
2018-12-24T07:34:32.176Z,0.40
2018-12-24T07:35:02.385Z,0.40
2018-12-24T07:35:40.341Z,0.40
2018-12-24T07:36:18.077Z,0.40
2018-12-24T07:36:55.103Z,0.40
2018-12-24T07:37:32.383Z,0.40
2018-12-24T07:38:10.108Z,0.40
2018-12-24T07:38:48.177Z,0.40
2018-12-24T07:39:25.520Z,0.40
2018-12-24T07:40:03.101Z,0.40
2018-12-24T07:40:40.733Z,0.40
2018-12-24T07:41:18.462Z,0.40
2018-12-24T07:41:56.453Z,0.40
2018-12-24T07:42:33.783Z,0.40
2018-12-24T07:43:11.109Z,0.40
2018-12-24T07:43:48.800Z,0.40
2018-12-24T07:44:25.611Z,0.40
2018-12-24T07:45:03.511Z,0.40
2018-12-24T07:45:43.807Z,0.40
2018-12-24T07:46:22.405Z,0.40
2018-12-24T07:47:00.262Z,0.40
2018-12-24T07:47:37.490Z,0.40
2018-12-24T07:48:14.817Z,0.40
2018-12-24T07:48:52.236Z,0.40
2018-12-24T07:49:30.053Z,0.50
2018-12-24T07:50:07.893Z,0.50
2018-12-24T07:50:45.159Z,0.50
2018-12-24T07:51:22.735Z,0.50
2018-12-24T07:52:00.841Z,0.50
2018-12-24T07:52:38.669Z,0.50
2018-12-24T07:53:16.229Z,0.50
2018-12-24T07:53:53.525Z,0.60
2018-12-24T07:54:30.999Z,0.60
2018-12-24T07:55:08.479Z,0.60
2018-12-24T07:55:46.065Z,0.60
2018-12-24T07:56:24.309Z,0.70
2018-12-24T07:57:01.941Z,0.70
2018-12-24T07:57:39.540Z,0.70
2018-12-24T07:58:16.563Z,0.70
2018-12-24T07:58:54.120Z,0.70
2018-12-24T07:59:31.733Z,0.70
2018-12-24T08:00:09.052Z,0.70
2018-12-24T08:00:46.911Z,0.70
2018-12-24T08:01:24.215Z,0.70
2018-12-24T08:02:02.013Z,0.70
2018-12-24T08:02:39.334Z,0.70
2018-12-24T08:03:17.343Z,0.70
2018-12-24T08:03:55.243Z,0.70
2018-12-24T08:04:32.495Z,0.70
2018-12-24T08:05:10.111Z,0.70
2018-12-24T08:05:47.993Z,0.70
2018-12-24T08:06:25.499Z,0.70
2018-12-24T08:07:03.173Z,0.70
2018-12-24T08:07:40.733Z,0.70
2018-12-24T08:08:18.625Z,0.70
2018-12-24T08:08:56.633Z,0.70
2018-12-24T08:09:37.241Z,0.70
2018-12-24T08:10:14.742Z,0.70
2018-12-24T08:10:52.557Z,0.70
2018-12-24T08:11:30.057Z,0.80
2018-12-24T08:12:07.573Z,0.70
2018-12-24T08:12:45.511Z,0.70
2018-12-24T08:13:23.148Z,0.80
2018-12-24T08:14:01.165Z,0.80
2018-12-24T08:14:38.779Z,0.80
2018-12-24T08:15:16.321Z,0.80
2018-12-24T08:15:54.181Z,0.80
2018-12-24T08:16:31.991Z,0.80
2018-12-24T08:17:09.339Z,0.80
2018-12-24T08:17:46.339Z,0.80
2018-12-24T08:18:23.528Z,0.80
2018-12-24T08:19:00.806Z,0.80
2018-12-24T08:19:38.586Z,0.80